Time;durP1;ratioP1;P1;durP2;ratioP2;P2;SDS_P1;SDS_P2;PMS_P1;PMS_P2;Temp;Humidity;BMP_temperature;BMP_pressure;BME280_temperature;BME280_humidity;BME280_pressure;Samples;Min_cycle;Max_cycle;Signal;HPM_P1;HPM_P2
2022/04/17 00:01:25;;;;;;;5.80;2.88;;;;;;;;;;4973284;28;20443;-94
2022/04/17 00:04:25;;;;;;;8.02;3.50;;;;;;;;;;4973147;28;20050;-92
2022/04/17 00:07:10;;;;;;;9.88;3.88;;;;;;;;;;4976485;28;20550;-93
2022/04/17 00:10:11;;;;;;;6.72;3.83;;;;;;;;;;4975146;28;20085;-93
2022/04/17 00:13:25;;;;;;;;;;;;;;;;;;;;;
2022/04/17 00:16:19;;;;;;;6.60;3.33;;;;;;;;;;4954671;28;20502;-92
2022/04/17 00:19:12;;;;;;;6.40;3.72;;;;;;;;;;4967119;28;20070;-93
2022/04/17 00:22:23;;;;;;;5.32;3.55;;;;;;;;;;4983593;28;20098;-94
2022/04/17 00:25:08;;;;;;;6.20;3.70;;;;;;;;;;4984742;28;20098;-94
2022/04/17 00:28:13;;;;;;;6.80;4.13;;;;;;;;;;4984616;28;20043;-94
2022/04/17 00:30:58;;;;;;;9.30;4.55;;;;;;;;;;4984843;28;20038;-94
2022/04/17 00:33:45;;;;;;;6.65;3.83;;;;;;;;;;4984108;28;20042;-93
2022/04/17 00:36:37;;;;;;;7.68;4.50;;;;;;;;;;4984665;28;20467;-92
2022/04/17 00:39:22;;;;;;;7.20;3.80;;;;;;;;;;4971209;28;20050;-93
2022/04/17 00:42:09;;;;;;;8.82;4.25;;;;;;;;;;4984254;28;20086;-94
2022/04/17 00:44:57;;;;;;;10.00;4.57;;;;;;;;;;4984135;28;20582;-93
2022/04/17 00:47:41;;;;;;;6.13;4.32;;;;;;;;;;4983864;28;20089;-94
2022/04/17 00:50:37;;;;;;;5.75;4.15;;;;;;;;;;4957509;28;20155;-93
2022/04/17 00:53:28;;;;;;;6.82;4.95;;;;;;;;;;4971898;28;20059;-94
2022/04/17 00:56:19;;;;;;;8.57;4.57;;;;;;;;;;4984537;28;20061;-93
2022/04/17 00:59:10;;;;;;;7.43;4.15;;;;;;;;;;4984137;28;20481;-93
2022/04/17 01:02:00;;;;;;;7.70;4.68;;;;;;;;;;4983661;28;20038;-93
2022/04/17 01:04:48;;;;;;;8.68;5.03;;;;;;;;;;4956880;28;20130;-93
2022/04/17 01:07:50;;;;;;;;;;;;;;;;;;;;;
2022/04/17 01:10:42;;;;;;;8.15;5.07;;;;;;;;;;4957010;29;20549;-93
2022/04/17 01:13:30;;;;;;;6.53;4.78;;;;;;;;;;4983854;28;20034;-93
2022/04/17 01:16:18;;;;;;;6.90;4.13;;;;;;;;;;4984050;28;20131;-93
2022/04/17 01:19:15;;;;;;;6.10;4.03;;;;;;;;;;4969957;28;20121;-93
2022/04/17 01:22:12;;;;;;;7.78;4.43;;;;;;;;;;4984053;28;20491;-93
2022/04/17 01:28:06;;;;;;;9.40;4.45;;;;;;;;;;4957266;29;20403;-94
2022/04/17 01:30:57;;;;;;;10.02;4.80;;;;;;;;;;4956828;28;20119;-94
2022/04/17 01:33:44;;;;;;;8.35;4.95;;;;;;;;;;4985042;28;20034;-93
2022/04/17 01:36:34;;;;;;;8.82;5.25;;;;;;;;;;4987064;28;20450;-93
2022/04/17 01:39:48;;;;;;;8.85;5.25;;;;;;;;;;4957065;28;20086;-94
2022/04/17 01:42:38;;;;;;;9.93;6.70;;;;;;;;;;4983473;28;20407;-93
2022/04/17 01:45:26;;;;;;;7.85;5.32;;;;;;;;;;4970047;28;20077;-93
2022/04/17 01:48:12;;;;;;;7.57;5.05;;;;;;;;;;4983621;28;20411;-93
2022/04/17 01:51:08;;;;;;;10.38;5.75;;;;;;;;;;4956300;28;20042;-94
2022/04/17 01:53:56;;;;;;;9.73;5.40;;;;;;;;;;4970189;28;20123;-94
2022/04/17 01:56:46;;;;;;;7.60;5.00;;;;;;;;;;4982517;28;20059;-92
2022/04/17 01:59:34;;;;;;;9.10;5.32;;;;;;;;;;4982969;28;20082;-93
2022/04/17 02:02:24;;;;;;;9.48;5.38;;;;;;;;;;4983004;28;20037;-94
2022/04/17 02:05:18;;;;;;;11.43;6.13;;;;;;;;;;4983130;28;20085;-93
2022/04/17 02:08:03;;;;;;;;;;;5.20;97.90;;;;;;4983225;28;20038;-94
2022/04/17 02:10:48;;;;;;;8.20;4.60;;;;;;;;;;4954955;28;19933;-94
2022/04/17 02:13:36;;;;;;;9.30;5.30;;;;;;;;;;4982939;28;20041;-93
2022/04/17 02:16:30;;;;;;;8.20;5.15;;;;;;;;;;4982797;28;20447;-93
2022/04/17 02:19:19;;;;;;;8.25;5.20;;;;;;;;;;4957001;29;20090;-92
2022/04/17 02:22:23;;;;;;;8.25;5.30;;;;;;;;;;4969409;28;20178;-93
2022/04/17 02:25:13;;;;;;;8.90;5.13;;;;;;;;;;4982265;28;20093;-93
2022/04/17 02:28:24;;;;;;;10.82;5.30;;;;;;;;;;4968116;28;20038;-93
2022/04/17 02:31:09;;;;;;;10.27;6.28;;;;;;;;;;4982145;28;20122;-93
2022/04/17 02:34:06;;;;;;;8.75;5.25;;;;;;;;;;4981613;28;20041;-93
2022/04/17 02:36:53;;;;;;;9.95;5.63;;;;;;;;;;4981316;28;20054;-92
2022/04/17 02:39:40;;;;;;;9.43;5.90;;;;;;;;;;4982211;28;20487;-92
2022/04/17 02:42:27;;;;;;;8.80;5.07;;;;;;;;;;4982300;28;20037;-92
2022/04/17 02:45:18;;;;;;;13.82;6.00;;;;;;;;;;4981786;28;20046;-93
2022/04/17 02:48:03;;;;;;;10.18;5.28;;;;;;;;;;4981770;28;20102;-93
2022/04/17 02:50:55;;;;;;;10.45;5.55;;;;;;;;;;4981930;28;20041;-94
2022/04/17 02:53:44;;;;;;;8.75;5.65;;;;;;;;;;4983031;28;20037;-94
2022/04/17 02:56:34;;;;;;;8.27;5.05;;;;;;;;;;4969333;28;20411;-93
2022/04/17 02:59:19;;;;;;;8.02;5.28;;;;;;;;;;4972614;28;20050;-94
2022/04/17 03:08:46;;;;;;;8.65;5.75;;;;;;;;;;5036068;28;20068;-92
2022/04/17 03:11:31;;;;;;;10.05;5.70;;;;;;;;;;5020492;28;20110;-93
2022/04/17 03:14:16;;;;;;;13.00;6.32;;;;;;;;;;4961414;28;20090;-93
2022/04/17 03:17:04;;;;;;;8.10;5.30;;;;;;;;;;4983643;28;20161;-94
2022/04/17 03:19:52;;;;;;;9.80;5.95;;;;;;;;;;4984043;28;20042;-91
2022/04/17 03:22:41;;;;;;;8.73;5.22;;;;;;;;;;4983363;28;20093;-92
2022/04/17 03:25:29;;;;;;;8.98;5.68;;;;;;;;;;4983576;28;20070;-94
2022/04/17 03:28:16;;;;;;;8.35;5.30;;;;;;;;;;4983078;28;20034;-92
2022/04/17 03:31:01;;;;;;;9.68;5.80;;;;;;;;;;4981188;28;20090;-93
2022/04/17 03:33:46;;;;;;;8.63;5.72;;;;;;;;;;4955332;28;20094;-92
2022/04/17 03:36:33;;;;;;;10.63;5.78;;;;;;;;;;4981823;28;20062;-93
2022/04/17 03:39:20;;;;;;;8.63;5.95;;;;;;;;;;4955212;28;20042;-93
2022/04/17 03:42:09;;;;;;;8.30;5.55;;;;;;;;;;4981191;28;20034;-93
2022/04/17 03:44:56;;;;;;;9.75;5.32;;;;;;;;;;4980868;28;20062;-92
2022/04/17 03:47:43;;;;;;;8.20;5.63;;;;;;;;;;4981347;28;20083;-93
2022/04/17 03:50:33;;;;;;;11.02;6.43;;;;;;;;;;4967897;28;20455;-94
2022/04/17 03:56:15;;;;;;;9.25;5.95;;;;;;;;;;4628938;27;15075654;-93
2022/04/17 04:01:51;;;;;;;;;;;;;;;;;;;;;
2022/04/17 04:04:41;;;;;;;12.55;6.07;;;;;;;;;;5050130;28;20091;-92
2022/04/17 04:07:33;;;;;;;10.35;6.18;;;;;;;;;;5050324;28;20136;-93
2022/04/17 04:10:21;;;;;;;11.13;5.72;;;;;;;;;;5049057;28;20040;-95
2022/04/17 04:13:11;;;;;;;10.20;6.30;;;;;;;;;;5034862;28;20048;-94
2022/04/17 04:16:04;;;;;;;10.65;5.90;;;;;;;;;;5048942;28;20055;-91
2022/04/17 04:18:56;;;;;;;9.13;6.07;;;;;;;;;;5035330;28;20493;-93
2022/04/17 04:24:56;;;;;;;8.85;5.55;;;;;;;;;;5039414;28;20056;-94
2022/04/17 08:25:19;;;;;;;9.50;6.15;;;14.60;62.20;;;;;;5109806;27;20694;-80
2022/04/17 08:28:04;;;;;;;9.10;6.45;;;14.30;64.70;;;;;;5094883;28;20063;-81
2022/04/17 08:30:49;;;;;;;8.68;6.00;;;14.20;65.60;;;;;;5108464;28;20039;-81
2022/04/17 08:33:33;;;;;;;9.52;6.07;;;14.10;65.70;;;;;;5109201;28;20399;-82
2022/04/17 08:36:17;;;;;;;9.57;5.65;;;14.00;66.00;;;;;;5109924;28;20530;-81
2022/04/17 08:39:01;;;;;;;10.48;6.72;;;14.10;66.40;;;;;;5108836;28;20082;-82
2022/04/17 08:41:47;;;;;;;8.68;6.20;;;14.30;65.90;;;;;;5109183;28;20445;-81
2022/04/17 08:44:31;;;;;;;8.95;5.93;;;14.40;65.70;;;;;;5108190;28;20055;-81
2022/04/17 08:47:16;;;;;;;9.65;6.45;;;14.60;65.30;;;;;;5109739;28;20038;-82
2022/04/17 08:50:00;;;;;;;8.00;5.53;;;14.60;64.80;;;;;;5108763;28;20437;-82
2022/04/17 08:52:47;;;;;;;7.78;5.47;;;14.60;63.80;;;;;;5109114;28;20055;-82
2022/04/17 08:55:32;;;;;;;7.90;5.85;;;14.70;64.10;;;;;;5109221;28;20050;-82
2022/04/17 08:58:16;;;;;;;7.35;5.32;;;15.00;63.90;;;;;;5109564;28;20545;-81
2022/04/17 09:01:00;;;;;;;7.28;4.93;;;15.30;63.20;;;;;;5094054;28;20046;-82
2022/04/17 09:03:48;;;;;;;8.40;5.25;;;15.40;62.50;;;;;;5107654;28;20097;-82
2022/04/17 09:06:35;;;;;;;7.63;5.50;;;15.40;62.90;;;;;;5106458;28;20394;-82
2022/04/17 09:09:20;;;;;;;9.18;5.43;;;15.40;62.60;;;;;;5107341;28;20184;-82
2022/04/17 09:12:05;;;;;;;9.48;5.80;;;15.50;62.50;;;;;;5108483;28;20039;-82
2022/04/17 09:14:49;;;;;;;6.88;5.22;;;15.60;62.20;;;;;;5106973;28;20079;-81
2022/04/17 09:17:34;;;;;;;10.88;6.05;;;15.60;61.90;;;;;;5108154;28;20073;-82
2022/04/17 09:20:20;;;;;;;8.85;4.57;;;15.60;62.10;;;;;;5108442;28;20115;-82
2022/04/17 09:23:04;;;;;;;10.60;5.22;;;15.80;61.50;;;;;;5101239;28;20438;-81
2022/04/17 09:25:49;;;;;;;6.40;4.25;;;16.10;60.70;;;;;;5107937;28;20047;-80
2022/04/17 09:28:40;;;;;;;9.38;4.18;;;17.60;59.60;;;;;;5100235;28;20188;-81
2022/04/17 09:31:25;;;;;;;6.22;3.88;;;16.70;58.70;;;;;;5091229;28;20031;-83
2022/04/17 09:34:10;;;;;;;7.68;4.43;;;17.00;58.20;;;;;;5081289;28;20050;-83
2022/04/17 09:36:58;;;;;;;6.30;3.95;;;17.30;57.80;;;;;;5095874;28;20074;-80
2022/04/17 09:39:44;;;;;;;6.28;3.97;;;17.60;56.50;;;;;;5090598;28;20036;-82
2022/04/17 09:42:29;;;;;;;5.75;3.90;;;17.90;55.30;;;;;;5094112;28;20047;-81
2022/04/17 09:45:13;;;;;;;5.53;4.22;;;17.90;53.80;;;;;;5087590;28;20079;-81
2022/04/17 09:47:58;;;;;;;6.65;4.20;;;17.60;54.40;;;;;;5082218;28;20097;-80
2022/04/17 09:50:42;;;;;;;7.32;3.90;;;17.40;55.20;;;;;;5072704;28;20123;-81
2022/04/17 09:53:37;;;;;;;4.93;3.83;;;17.40;54.90;;;;;;5092235;28;20097;-82
2022/04/17 09:56:37;;;;;;;5.20;3.63;;;17.30;54.70;;;;;;5094348;28;20062;-82
2022/04/17 09:59:23;;;;;;;5.93;3.97;;;17.30;54.80;;;;;;5091816;28;20039;-81
2022/04/17 10:02:12;;;;;;;7.50;4.28;;;17.40;55.00;;;;;;5093533;28;20134;-81
2022/04/17 10:04:57;;;;;;;6.57;3.83;;;17.50;53.90;;;;;;5082044;28;20059;-81
2022/04/17 10:07:46;;;;;;;5.88;4.25;;;17.60;53.60;;;;;;5073529;28;20081;-82
2022/04/17 10:10:31;;;;;;;6.47;4.40;;;17.70;53.50;;;;;;5086764;28;20408;-82
2022/04/17 10:13:18;;;;;;;6.10;4.65;;;17.70;53.10;;;;;;5088771;28;20541;-82
2022/04/17 10:16:06;;;;;;;7.20;4.43;;;17.60;54.00;;;;;;5093027;28;20043;-80
2022/04/17 10:18:50;;;;;;;6.97;4.22;;;17.60;52.80;;;;;;5093943;28;20035;-81
2022/04/17 10:21:35;;;;;;;6.10;3.60;;;17.50;52.20;;;;;;5094593;28;20031;-81
2022/04/17 10:24:21;;;;;;;6.03;3.80;;;17.60;51.60;;;;;;5093970;28;20135;-82
2022/04/17 10:27:07;;;;;;;5.75;4.13;;;17.70;51.70;;;;;;5100846;28;20119;-83
2022/04/17 10:30:12;;;;;;;6.78;3.60;;;17.90;50.80;;;;;;5090324;28;20031;-83
2022/04/17 10:33:32;;;;;;;5.82;3.50;;;18.10;50.00;;;;;;5091979;28;20035;-81
2022/04/17 10:36:53;;;;;;;4.47;3.08;;;18.40;49.20;;;;;;5093884;28;20035;-81
2022/04/17 10:39:48;;;;;;;5.30;3.50;;;18.60;48.00;;;;;;5094082;28;20042;-81
2022/04/17 10:42:36;;;;;;;5.97;3.83;;;18.40;46.80;;;;;;5093813;28;20050;-81
2022/04/17 10:45:21;;;;;;;4.38;3.28;;;18.30;46.70;;;;;;5092742;28;20240;-81
2022/04/17 10:48:12;;;;;;;5.30;2.90;;;18.30;46.60;;;;;;5092177;28;20051;-81
2022/04/17 10:50:56;;;;;;;4.57;2.90;;;18.30;45.00;;;;;;5093268;28;20043;-81
2022/04/17 10:54:03;;;;;;;7.20;3.10;;;18.10;44.80;;;;;;5093762;28;20586;-81
2022/04/17 10:56:53;;;;;;;4.97;3.50;;;18.00;46.10;;;;;;5093315;28;20082;-81
2022/04/17 10:59:37;;;;;;;4.95;3.30;;;18.10;46.90;;;;;;5093476;28;20035;-82
2022/04/17 11:02:24;;;;;;;5.28;2.72;;;18.10;46.50;;;;;;5078166;28;20120;-81
2022/04/17 11:05:10;;;;;;;6.32;2.80;;;18.20;45.50;;;;;;5092833;28;20078;-81
2022/04/17 11:08:18;;;;;;;5.38;2.90;;;18.30;44.90;;;;;;5092710;28;20089;-82
2022/04/17 11:11:03;;;;;;;5.00;2.92;;;18.40;43.60;;;;;;5092774;28;20050;-81
2022/04/17 11:14:13;;;;;;;4.47;3.42;;;18.40;43.20;;;;;;5093197;28;20097;-81
2022/04/17 11:16:59;;;;;;;5.28;3.00;;;18.50;44.20;;;;;;5091730;28;20043;-80
2022/04/17 11:19:47;;;;;;;5.72;3.20;;;18.60;43.90;;;;;;5093267;28;20035;-80
2022/04/17 11:22:37;;;;;;;7.38;2.95;;;18.70;43.70;;;;;;5092889;28;20069;-80
2022/04/17 11:25:25;;;;;;;4.43;2.97;;;18.80;43.60;;;;;;5093031;28;20423;-80
2022/04/17 11:28:35;;;;;;;5.45;3.13;;;18.90;43.40;;;;;;5092553;28;20273;-80
2022/04/17 11:31:32;;;;;;;5.95;3.35;;;18.90;41.40;;;;;;5092091;28;20043;-81
2022/04/17 11:34:16;;;;;;;5.72;3.30;;;18.90;41.10;;;;;;5092598;28;20042;-81
2022/04/17 11:37:02;;;;;;;4.32;2.90;;;19.00;42.00;;;;;;5091223;28;20039;-81
2022/04/17 11:39:48;;;;;;;6.13;3.50;;;19.00;42.50;;;;;;5093110;28;20035;-81
2022/04/17 11:42:39;;;;;;;4.53;3.42;;;19.10;42.10;;;;;;5088827;28;20074;-81
2022/04/17 11:45:40;;;;;;;7.75;3.65;;;19.20;41.50;;;;;;5078713;28;20047;-81
2022/04/17 11:48:29;;;;;;;5.53;3.35;;;19.10;41.50;;;;;;5072197;28;20106;-81
2022/04/17 11:51:20;;;;;;;7.13;3.67;;;19.10;41.60;;;;;;5071082;28;20052;-81
2022/04/17 11:54:04;;;;;;;6.30;3.50;;;19.20;42.10;;;;;;5070959;28;20603;-81
2022/04/17 11:56:52;;;;;;;7.68;4.43;;;19.20;42.10;;;;;;5073448;28;20124;-81
2022/04/17 11:59:50;;;;;;;5.47;4.03;;;19.30;42.40;;;;;;5077361;28;20040;-79
2022/04/17 12:02:37;;;;;;;6.60;3.97;;;19.40;43.20;;;;;;5102191;28;20502;-81
2022/04/17 12:05:22;;;;;;;6.63;4.22;;;19.40;43.40;;;;;;5092760;28;20118;-79
2022/04/17 12:08:09;;;;;;;6.55;3.95;;;19.40;43.30;;;;;;5093680;28;20416;-79
2022/04/17 12:10:54;;;;;;;5.18;3.60;;;19.50;43.30;;;;;;5095908;28;20047;-80
2022/04/17 12:13:39;;;;;;;5.68;3.97;;;19.50;43.70;;;;;;5075914;28;20062;-80
2022/04/17 12:16:23;;;;;;;5.80;3.65;;;19.50;43.00;;;;;;5077439;28;20039;-81
2022/04/17 12:19:14;;;;;;;7.78;4.13;;;19.60;43.20;;;;;;5071467;28;20047;-81
2022/04/17 12:21:59;;;;;;;7.45;4.30;;;19.60;43.20;;;;;;5088855;28;20081;-81
2022/04/17 12:24:44;;;;;;;6.03;3.90;;;19.70;43.20;;;;;;5090547;28;20050;-81
2022/04/17 12:27:28;;;;;;;7.22;3.60;;;19.90;42.80;;;;;;5091766;28;20038;-81
2022/04/17 12:30:12;;;;;;;6.18;4.00;;;19.90;43.20;;;;;;5083229;28;20083;-81
2022/04/17 12:32:59;;;;;;;5.07;3.53;;;19.90;42.90;;;;;;5071890;28;20105;-81
2022/04/17 12:35:44;;;;;;;5.60;3.63;;;20.00;42.90;;;;;;5071954;28;20108;-81
2022/04/17 12:38:28;;;;;;;7.60;3.90;;;20.10;42.30;;;;;;5089216;28;20074;-80
2022/04/17 12:41:17;;;;;;;5.10;3.90;;;20.10;41.20;;;;;;5091051;28;20046;-80
2022/04/17 12:44:01;;;;;;;6.13;3.97;;;20.00;40.70;;;;;;5091340;28;20043;-81
2022/04/17 12:46:46;;;;;;;6.47;4.07;;;19.90;40.20;;;;;;5092259;28;20399;-81
2022/04/17 12:49:30;;;;;;;6.75;4.07;;;19.90;40.00;;;;;;5091182;28;20494;-81
2022/04/17 12:52:21;;;;;;;6.80;4.60;;;19.60;40.00;;;;;;5091504;28;20455;-81
2022/04/17 12:55:09;;;;;;;6.03;4.00;;;19.60;40.20;;;;;;5091424;28;20444;-80
2022/04/17 12:57:56;;;;;;;7.95;4.60;;;19.60;40.30;;;;;;5091176;28;20086;-81
2022/04/17 13:00:40;;;;;;;6.50;4.20;;;19.70;39.20;;;;;;5091832;28;20454;-80
2022/04/17 13:03:35;;;;;;;5.35;3.75;;;19.60;39.70;;;;;;5090374;28;20096;-81
2022/04/17 13:06:23;;;;;;;7.30;4.47;;;19.70;40.40;;;;;;5091273;28;20047;-80
2022/04/17 13:09:18;;;;;;;7.18;3.97;;;19.70;40.00;;;;;;5091414;28;20076;-79
2022/04/17 13:12:03;;;;;;;5.13;3.83;;;19.70;39.80;;;;;;5095157;28;20047;-79
2022/04/17 13:15:02;;;;;;;5.93;3.83;;;19.80;39.20;;;;;;5095640;28;20051;-80
2022/04/17 13:17:51;;;;;;;4.90;3.60;;;19.80;38.90;;;;;;5095543;28;20035;-80
2022/04/17 13:20:35;;;;;;;5.85;3.42;;;19.80;39.30;;;;;;5094450;28;20046;-81
2022/04/17 13:23:19;;;;;;;7.43;4.47;;;19.90;39.50;;;;;;5093574;28;20105;-81
2022/04/17 13:26:03;;;;;;;5.43;3.70;;;20.00;39.10;;;;;;5095201;28;20131;-81
2022/04/17 13:28:48;;;;;;;5.90;4.05;;;20.10;38.40;;;;;;5094437;28;20400;-81
2022/04/17 13:31:33;;;;;;;5.40;3.90;;;20.00;38.50;;;;;;5070714;28;20039;-81
2022/04/17 13:34:18;;;;;;;5.85;3.80;;;20.00;39.00;;;;;;5088058;28;20043;-81
2022/04/17 13:40:07;;;;;;;;;;;20.00;38.30;;;;;;5089845;28;20413;-81
2022/04/17 13:42:51;;;;;;;8.45;4.95;;;20.00;39.60;;;;;;5074304;28;20008;-81
2022/04/17 13:45:38;;;;;;;7.90;3.80;;;20.10;38.20;;;;;;5088973;28;20395;-81
2022/04/17 13:48:22;;;;;;;6.32;4.00;;;20.10;37.70;;;;;;5090062;28;21257;-81
2022/04/17 13:51:06;;;;;;;6.22;4.30;;;20.10;37.30;;;;;;5094845;28;20039;-81
2022/04/17 13:53:51;;;;;;;6.43;4.38;;;20.20;37.40;;;;;;5076965;28;20039;-81
2022/04/17 13:56:35;;;;;;;5.47;4.03;;;20.30;37.60;;;;;;5090889;28;20085;-81
2022/04/17 13:59:19;;;;;;;5.70;3.83;;;20.20;37.40;;;;;;5092697;28;20101;-81
2022/04/17 14:02:04;;;;;;;5.53;4.05;;;18.40;36.70;;;;;;5077783;28;20039;-81
2022/04/17 14:04:48;;;;;;;7.10;4.78;;;20.20;37.40;;;;;;5078458;28;20043;-81
2022/04/17 14:07:35;;;;;;;7.88;4.38;;;20.20;37.30;;;;;;5077387;28;20075;-81
2022/04/17 14:10:22;;;;;;;9.52;6.10;;;20.20;37.70;;;;;;5089894;28;20065;-81
2022/04/17 14:13:11;;;;;;;6.05;4.00;;;20.20;38.30;;;;;;5072762;28;20031;-81
2022/04/17 14:15:55;;;;;;;7.55;3.88;;;20.30;37.90;;;;;;5092931;28;20035;-81
2022/04/17 14:18:39;;;;;;;6.85;4.32;;;20.40;37.60;;;;;;5092775;28;20043;-81
2022/04/17 14:21:23;;;;;;;6.88;4.28;;;20.40;37.00;;;;;;5079795;28;20043;-81
2022/04/17 14:24:08;;;;;;;8.10;4.20;;;20.30;37.10;;;;;;5093328;28;20071;-81
2022/04/17 14:26:52;;;;;;;5.60;3.83;;;20.20;36.60;;;;;;5091387;28;20061;-81
2022/04/17 14:29:36;;;;;;;5.07;3.80;;;20.00;36.90;;;;;;5090577;28;20081;-81
2022/04/17 14:32:20;;;;;;;6.90;4.07;;;19.90;37.50;;;;;;5087718;28;20548;-80
2022/04/17 14:35:05;;;;;;;5.38;3.75;;;19.90;37.80;;;;;;5090246;28;20115;-81
2022/04/17 14:37:50;;;;;;;8.32;4.07;;;20.00;37.70;;;;;;5098868;28;20032;-81
2022/04/17 14:40:34;;;;;;;5.70;3.78;;;20.10;37.60;;;;;;5096467;28;20093;-79
2022/04/17 14:43:19;;;;;;;5.85;3.65;;;20.10;37.00;;;;;;5093011;28;20115;-82
2022/04/17 14:46:03;;;;;;;5.22;3.53;;;20.00;37.50;;;;;;5093382;28;20030;-81
2022/04/17 14:48:47;;;;;;;6.53;4.10;;;20.00;37.30;;;;;;5093284;28;20077;-81
2022/04/17 14:51:31;;;;;;;9.55;3.72;;;19.90;36.90;;;;;;5091552;28;20051;-81
2022/04/17 14:54:16;;;;;;;5.75;3.50;;;19.80;36.70;;;;;;5092753;28;20035;-81
2022/04/17 14:57:01;;;;;;;5.35;3.47;;;19.70;37.40;;;;;;5084620;28;20071;-82
2022/04/17 14:59:45;;;;;;;5.32;3.58;;;19.70;37.00;;;;;;5090339;28;20126;-81
2022/04/17 15:02:30;;;;;;;5.63;3.63;;;19.70;37.80;;;;;;5092442;28;20161;-81
2022/04/17 15:05:14;;;;;;;5.95;3.60;;;19.60;37.50;;;;;;5093406;28;20047;-81
2022/04/17 15:07:58;;;;;;;6.10;3.70;;;19.60;37.50;;;;;;5091894;28;20059;-81
2022/04/17 15:10:43;;;;;;;6.57;3.90;;;19.50;37.50;;;;;;5087163;28;20036;-81
2022/04/17 15:13:27;;;;;;;5.10;3.30;;;19.40;37.70;;;;;;5078026;28;20039;-81
2022/04/17 15:16:12;;;;;;;7.25;3.33;;;19.30;37.70;;;;;;5074106;28;20163;-82
2022/04/17 15:18:57;;;;;;;6.22;3.45;;;19.30;37.60;;;;;;5089218;28;20439;-81
2022/04/17 15:21:41;;;;;;;4.65;3.08;;;19.20;37.70;;;;;;5089028;28;20400;-81
2022/04/17 15:24:25;;;;;;;4.90;3.15;;;19.20;38.20;;;;;;5089311;28;20494;-81
2022/04/17 15:27:11;;;;;;;5.65;3.30;;;19.30;38.20;;;;;;5092815;28;20085;-81
2022/04/17 15:29:55;;;;;;;7.38;2.72;;;19.20;38.40;;;;;;5092481;28;20043;-81
2022/04/17 15:32:39;;;;;;;4.18;2.40;;;19.20;37.40;;;;;;5091428;28;20035;-81
2022/04/17 15:35:24;;;;;;;4.35;2.63;;;19.10;37.50;;;;;;5076501;28;20043;-81
2022/04/17 15:38:09;;;;;;;5.65;2.72;;;19.10;36.90;;;;;;5071720;28;20538;-81
2022/04/17 15:40:53;;;;;;;4.10;2.60;;;18.80;40.10;;;;;;5071659;28;20043;-81
2022/04/17 15:49:45;;;;;;;;;;;18.90;38.80;;;;;;5072409;28;20110;-84
2022/04/17 15:52:29;;;;;;;;;;;18.80;39.40;;;;;;5071336;28;20374;-79
2022/04/17 15:55:15;;;;;;;;;;;18.80;39.60;;;;;;5072072;28;19938;-80
2022/04/17 15:57:59;;;;;;;3.95;2.35;;;18.50;41.50;;;;;;5072216;28;19920;-82
2022/04/17 16:00:43;;;;;;;4.35;2.65;;;18.50;39.20;;;;;;5071759;28;20086;-82
2022/04/17 16:03:27;;;;;;;5.07;2.90;;;18.70;41.30;;;;;;5071641;28;20449;-83
2022/04/17 16:06:12;;;;;;;6.75;2.95;;;17.90;40.90;;;;;;5071246;28;20132;-82
2022/04/17 16:08:56;;;;;;;6.75;2.95;;;18.40;39.40;;;;;;5071441;28;20035;-83
2022/04/17 16:11:41;;;;;;;7.78;3.08;;;18.10;42.30;;;;;;5084878;28;20461;-83
2022/04/17 16:14:25;;;;;;;4.47;2.88;;;;;;;;;;5085039;28;20119;-83
2022/04/17 16:17:11;;;;;;;3.60;2.40;;;18.00;42.30;;;;;;5071137;28;20043;-82
2022/04/17 16:19:57;;;;;;;4.07;2.40;;;18.40;44.20;;;;;;5071185;28;20503;-85
2022/04/17 16:22:41;;;;;;;3.97;2.75;;;18.10;39.40;;;;;;5071406;28;20090;-81
2022/04/17 16:25:26;;;;;;;5.45;2.83;;;;;;;;;;5070669;28;20044;-81
2022/04/17 16:28:11;;;;;;;3.40;2.33;;;18.10;40.70;;;;;;5071014;28;20039;-82
2022/04/17 16:30:56;;;;;;;3.75;2.40;;;18.00;41.80;;;;;;5070997;28;20075;-82
2022/04/17 16:33:40;;;;;;;3.72;2.10;;;17.70;42.50;;;;;;5071397;28;20047;-81
2022/04/17 16:36:24;;;;;;;4.38;2.38;;;17.70;40.20;;;;;;5072064;28;20397;-81
2022/04/17 16:39:09;;;;;;;3.20;2.40;;;17.60;40.00;;;;;;5072079;28;20043;-81
2022/04/17 16:41:53;;;;;;;5.47;2.65;;;17.50;40.10;;;;;;5071799;28;20062;-81
2022/04/17 16:44:37;;;;;;;4.95;2.40;;;17.40;40.10;;;;;;5084537;28;20102;-82
2022/04/17 16:47:21;;;;;;;3.40;2.33;;;17.30;40.10;;;;;;5075005;28;20051;-82
2022/04/17 16:50:06;;;;;;;3.38;2.10;;;17.20;42.30;;;;;;5075894;28;20551;-82
2022/04/17 16:52:51;;;;;;;4.13;2.22;;;16.80;41.30;;;;;;5080250;28;20039;-87
2022/04/17 16:55:35;;;;;;;4.00;2.03;;;16.90;42.40;;;;;;5088544;28;20487;-83
2022/04/17 17:01:23;;;;;;;5.38;2.22;;;17.00;40.30;;;;;;5075675;28;20071;-82
2022/04/17 17:04:07;;;;;;;4.28;1.85;;;17.00;40.00;;;;;;5088957;28;20094;-82
2022/04/17 17:06:51;;;;;;;4.50;2.30;;;16.90;39.90;;;;;;5088295;28;20054;-82
2022/04/17 17:09:35;;;;;;;2.83;1.75;;;16.80;39.80;;;;;;5088231;28;20064;-86
2022/04/17 17:12:19;;;;;;;5.28;2.20;;;16.60;42.70;;;;;;5075425;28;20082;-82
2022/04/17 17:15:04;;;;;;;4.70;2.28;;;16.70;40.00;;;;;;5081840;28;20399;-83
2022/04/17 17:17:48;;;;;;;6.05;2.20;;;16.80;44.40;;;;;;5093485;28;20116;-83
2022/04/17 17:20:33;;;;;;;4.78;2.20;;;;;;;;;;5093665;28;20039;-83
2022/04/17 17:23:18;;;;;;;6.03;1.98;;;;;;;;;;5093575;28;20545;-83
2022/04/17 17:26:02;;;;;;;5.70;2.85;;;16.40;40.20;;;;;;5094858;28;20051;-82
2022/04/17 17:28:47;;;;;;;10.85;4.85;;;16.30;40.90;;;;;;5094401;28;20392;-83
2022/04/17 17:31:31;;;;;;;6.22;2.92;;;16.30;41.00;;;;;;5095269;28;20093;-85
2022/04/17 17:34:15;;;;;;;4.82;2.22;;;16.20;41.00;;;;;;5095447;28;20166;-86
2022/04/17 17:37:00;;;;;;;4.18;2.35;;;16.20;41.40;;;;;;5094236;28;20119;-86
2022/04/17 17:39:44;;;;;;;3.45;2.03;;;16.10;44.50;;;;;;5093649;28;20082;-83
2022/04/17 17:42:28;;;;;;;4.13;1.80;;;16.00;41.70;;;;;;5094228;28;20097;-82
2022/04/17 17:45:13;;;;;;;3.17;2.05;;;15.90;41.80;;;;;;5095006;28;20091;-82
2022/04/17 17:48:04;;;;;;;3.85;1.67;;;15.80;41.80;;;;;;5065384;28;20128;-83
2022/04/17 17:50:49;;;;;;;7.53;3.88;;;15.80;41.80;;;;;;5093587;28;20054;-83
2022/04/17 17:53:35;;;;;;;6.32;3.58;;;15.70;41.70;;;;;;5094052;28;20404;-83
2022/04/17 17:56:20;;;;;;;4.82;2.80;;;15.40;41.80;;;;;;5094489;28;20105;-83
2022/04/17 17:59:04;;;;;;;5.13;2.50;;;15.60;42.00;;;;;;5094056;28;20079;-82
2022/04/17 18:01:48;;;;;;;3.47;2.03;;;15.40;41.70;;;;;;5094254;28;20089;-83
2022/04/17 18:04:33;;;;;;;5.00;2.13;;;15.40;42.00;;;;;;5093669;28;20043;-82
2022/04/17 18:16:29;;;;;;;5.35;1.73;;;15.10;42.90;;;;;;5094619;28;20043;-83
2022/04/17 18:19:14;;;;;;;5.07;2.17;;;15.00;43.50;;;;;;5093454;28;20505;-82
2022/04/17 18:25:07;;;;;;;5.32;2.22;;;14.80;43.70;;;;;;5092766;28;20547;-82
2022/04/17 18:27:52;;;;;;;3.92;2.15;;;14.80;44.50;;;;;;5093592;28;20144;-83
2022/04/17 18:30:36;;;;;;;7.63;4.30;;;14.30;44.10;;;;;;5093170;28;20042;-82
2022/04/17 18:33:23;;;;;;;21.65;11.32;;;14.50;44.70;;;;;;5093218;28;20039;-82
2022/04/17 18:36:08;;;;;;;28.60;13.82;;;14.40;45.00;;;;;;5093145;28;20043;-82
2022/04/17 18:38:52;;;;;;;23.88;13.32;;;14.30;45.30;;;;;;5092593;28;20094;-82
2022/04/17 18:41:36;;;;;;;16.58;8.70;;;14.20;45.60;;;;;;5093912;28;20097;-82
2022/04/17 18:44:21;;;;;;;13.43;7.15;;;13.80;49.20;;;;;;5092869;28;20097;-82
2022/04/17 18:47:05;;;;;;;9.73;4.38;;;13.80;56.50;;;;;;5093341;28;20499;-83
2022/04/17 18:49:49;;;;;;;6.85;3.15;;;13.90;46.90;;;;;;5093358;28;20055;-82
2022/04/17 18:52:36;;;;;;;8.73;3.65;;;13.80;47.00;;;;;;5092754;28;20157;-82
2022/04/17 18:55:23;;;;;;;8.45;2.97;;;13.80;47.40;;;;;;5093823;28;20043;-82
2022/04/17 18:58:08;;;;;;;4.25;2.53;;;13.70;47.80;;;;;;5092327;28;20047;-82
2022/04/17 19:00:52;;;;;;;4.85;3.10;;;13.50;48.10;;;;;;5092267;28;20388;-83
2022/04/17 19:03:36;;;;;;;4.50;3.05;;;13.50;48.70;;;;;;5093440;28;20047;-82
2022/04/17 19:06:20;;;;;;;5.00;3.28;;;13.30;48.90;;;;;;5093694;28;20498;-82
2022/04/17 19:09:05;;;;;;;6.38;3.50;;;13.20;49.10;;;;;;5092100;28;20331;-82
2022/04/17 19:14:52;;;;;;;7.55;3.42;;;13.10;49.70;;;;;;5091982;28;20046;-82
2022/04/17 19:17:36;;;;;;;6.38;3.42;;;12.90;50.00;;;;;;5093329;28;20038;-82
2022/04/17 19:20:21;;;;;;;6.22;3.40;;;12.70;50.00;;;;;;5093191;28;20093;-83
2022/04/17 19:23:06;;;;;;;8.57;4.00;;;12.70;50.50;;;;;;5092478;28;20069;-82
2022/04/17 19:25:51;;;;;;;5.88;4.00;;;12.70;50.80;;;;;;5091324;28;20047;-83
2022/04/17 19:28:36;;;;;;;7.68;4.00;;;12.60;51.20;;;;;;5092985;28;20169;-82
2022/04/17 19:37:26;;;;;;;9.30;5.13;;;12.30;51.80;;;;;;5092245;28;20504;-83
2022/04/17 19:40:12;;;;;;;7.55;4.88;;;12.20;52.50;;;;;;5092129;28;20071;-83
2022/04/17 19:42:56;;;;;;;8.15;4.75;;;12.20;52.40;;;;;;5080784;28;20082;-83
2022/04/17 19:45:40;;;;;;;8.85;5.70;;;12.10;52.80;;;;;;5083068;28;20075;-83
2022/04/17 19:48:24;;;;;;;9.02;5.82;;;11.80;53.10;;;;;;5091716;28;20391;-83
2022/04/17 19:51:08;;;;;;;9.02;5.18;;;11.90;53.10;;;;;;5092145;28;20042;-83
2022/04/17 19:53:52;;;;;;;11.52;5.18;;;11.90;53.50;;;;;;5077013;28;20047;-83
2022/04/17 19:56:37;;;;;;;7.32;4.95;;;;;;;;;;5092627;28;20398;-83
2022/04/17 19:59:21;;;;;;;5.80;4.63;;;11.30;53.40;;;;;;5091680;28;20511;-83